In Rescue
 
Open Full Screen Window  High Contrast Mode
Wind Gusting 00 knots
06
May 25, 2022 7:43 PM CDT
Present Weather: Drizzle
Weather Information
Wind Direction
  040 °
Wind Speed
  06 kt (7 mph)
Wind Gust
  00 kt (0 mph)
Altimeter
29.99 in
Visibility
3 SM
Temperature
08° C
46° F
Dewpoint
07° C
45° F
Humidity
93%
1hr Rain Fall
00.02 in.
24hr Rain Fall
00.05 in.
Sky Condition
Overcast @ 1,400 ft
Broken @ 600 ft
IFR

METAR KEVM 260043Z AUTO 04006KT 3SM DZ BKN006 OVC014 08/07 A2999 RMK AO2 P0002

FAA Disclaimer: The data displayed is for advisory purposes only and is not to be used for flight planning or operations.